Time;durP1;ratioP1;P1;durP2;ratioP2;P2;SDS_P1;SDS_P2;PMS_P1;PMS_P2;Temp;Humidity;BMP_temperature;BMP_pressure;BME280_temperature;BME280_humidity;BME280_pressure;Samples;Min_cycle;Max_cycle;Signal;HPM_P1;HPM_P2
2022/09/03 00:00:05;;;;;;;3.53;2.10;;;13.70;20.50;;;13.83;57.94;101403.22;4934459;29;20478;-72
2022/09/03 00:02:44;;;;;;;1.53;1.00;;;13.70;20.30;;;13.88;57.65;101400.72;4933713;29;20453;-71
2022/09/03 00:05:23;;;;;;;1.77;1.23;;;13.80;20.10;;;13.85;57.91;101407.41;4935245;29;20415;-72
2022/09/03 00:08:07;;;;;;;7.07;1.70;;;13.80;20.30;;;13.88;57.54;101401.56;4936583;29;20456;-70
2022/09/03 00:10:50;;;;;;;2.20;1.60;;;13.80;20.20;;;13.88;57.51;101406.16;4937220;29;20470;-72
2022/09/03 00:13:27;;;;;;;2.40;1.63;;;13.70;20.40;;;13.96;57.29;101399.66;4931541;29;20414;-71
2022/09/03 00:15:58;;;;;;;2.50;1.53;;;13.80;20.30;;;13.88;57.59;101403.44;4944161;28;21020;-71
2022/09/03 00:18:33;;;;;;;2.70;1.63;;;13.80;20.20;;;13.86;57.60;101392.75;4935728;28;20531;-73
2022/09/03 00:21:11;;;;;;;7.47;1.63;;;13.80;20.20;;;13.88;57.55;101406.16;4945729;29;20515;-72
2022/09/03 00:23:44;;;;;;;8.27;1.40;;;13.80;20.30;;;13.94;57.27;101400.69;4940686;28;20710;-71
2022/09/03 00:26:33;;;;;;;5.87;1.77;;;13.80;20.20;;;13.91;57.58;101405.72;4933155;29;20443;-71
2022/09/03 00:29:12;;;;;;;1.77;1.40;;;13.80;20.10;;;13.90;57.36;101402.16;4930505;29;20937;-72
2022/09/03 00:31:48;;;;;;;3.33;1.60;;;13.80;20.10;;;13.91;57.65;101397.56;4946552;28;20450;-72
2022/09/03 00:34:26;;;;;;;4.07;1.80;;;13.80;20.00;;;13.86;57.63;101394.63;4941137;28;20418;-72
2022/09/03 00:36:57;;;;;;;1.80;1.33;;;13.80;20.20;;;13.75;57.76;101396.09;4937022;29;20827;-73
2022/09/03 00:39:28;;;;;;;2.40;1.17;;;13.70;20.40;;;13.79;58.03;101402.81;4939661;29;20431;-72
2022/09/03 00:42:28;;;;;;;2.30;1.50;;;13.70;20.70;;;13.78;57.78;101394.88;4934432;29;20987;-72
2022/09/03 00:45:22;;;;;;;3.10;1.63;;;13.70;20.70;;;13.79;57.62;101397.38;4940632;29;20462;-72
2022/09/03 00:48:15;;;;;;;1.93;1.20;;;13.70;20.70;;;13.74;58.11;101390.91;4937662;29;20853;-72
2022/09/03 00:51:12;;;;;;;6.70;2.00;;;13.70;20.90;;;13.74;58.13;101394.47;4939885;29;20427;-72
2022/09/03 00:53:56;;;;;;;3.63;1.20;;;13.70;21.00;;;13.75;57.94;101395.25;4939473;29;20449;-72
2022/09/03 00:56:40;;;;;;;7.17;1.60;;;13.60;21.20;;;13.71;58.14;101399.47;4937298;28;20449;-72
2022/09/03 00:59:26;;;;;;;1.83;1.10;;;13.60;21.50;;;13.70;58.25;101389.66;4939878;29;20422;-72
2022/09/03 01:02:11;;;;;;;3.07;1.50;;;13.60;21.60;;;13.67;58.27;101392.78;4935277;29;20447;-72
2022/09/03 01:04:59;;;;;;;1.90;1.30;;;13.60;21.90;;;13.60;58.69;101389.25;4934037;29;20426;-73
2022/09/03 01:07:41;;;;;;;2.70;1.57;;;13.50;22.40;;;13.47;59.12;101388.19;4942822;29;20433;-72
2022/09/03 01:10:30;;;;;;;3.80;2.23;;;13.50;23.00;;;13.49;59.10;101390.69;4940301;29;20494;-72
2022/09/03 01:13:07;;;;;;;3.87;2.37;;;13.40;23.20;;;13.49;58.91;101375.22;4939234;29;20811;-71
2022/09/03 01:15:48;;;;;;;3.83;1.60;;;13.40;23.60;;;13.39;59.44;101385.69;4935323;29;20447;-72
2022/09/03 01:18:33;;;;;;;2.23;1.70;;;13.40;23.90;;;13.40;59.41;101381.91;4937614;29;20418;-72
2022/09/03 01:21:45;;;;;;;4.33;2.27;;;13.30;24.50;;;13.30;59.71;101381.50;4947480;23;20484;-71
2022/09/03 01:25:06;;;;;;;2.80;1.47;;;13.30;25.00;;;13.26;59.82;101380.25;4942018;29;20414;-70
2022/09/03 01:27:54;;;;;;;1.80;1.17;;;13.20;26.10;;;13.18;60.02;101377.72;4917948;29;20430;-70
2022/09/03 01:30:25;;;;;;;3.63;1.83;;;13.20;26.10;;;13.12;60.67;101373.09;4932275;29;20431;-70
2022/09/03 01:33:05;;;;;;;2.80;1.77;;;13.10;26.90;;;13.17;60.34;101370.59;4922420;29;20423;-69
2022/09/03 01:35:47;;;;;;;1.80;1.20;;;13.10;27.30;;;13.08;60.44;101367.22;4916322;29;20438;-71
2022/09/03 01:38:31;;;;;;;1.90;1.33;;;13.00;27.80;;;13.09;60.75;101362.63;4923746;29;20502;-70
2022/09/03 01:44:15;;;;;;;4.00;1.73;;;13.00;28.70;;;13.14;60.32;101365.59;4913182;29;20922;-70
2022/09/03 01:46:57;;;;;;;7.23;2.30;;;13.00;29.10;;;13.08;60.59;101360.94;4913343;29;20480;-69
2022/09/03 01:49:38;;;;;;;5.50;2.10;;;13.00;29.30;;;13.02;60.71;101364.50;4914330;29;20446;-70
2022/09/03 01:52:16;;;;;;;2.27;1.50;;;13.00;29.70;;;13.07;60.71;101364.69;4915233;29;20532;-70
2022/09/03 01:55:02;;;;;;;9.27;1.83;;;12.90;30.10;;;12.97;60.88;101364.28;4919147;29;20862;-69
2022/09/03 01:57:49;;;;;;;2.10;1.50;;;12.90;30.60;;;13.05;60.85;101369.53;4910380;29;20550;-70
2022/09/03 02:00:20;;;;;;;1.80;1.53;;;12.90;31.50;;;12.90;61.33;101377.00;4921425;29;20448;-70
2022/09/03 02:02:53;;;;;;;3.57;2.17;;;12.90;31.80;;;12.88;61.27;101379.09;4915216;29;20474;-70
2022/09/03 02:05:25;;;;;;;3.47;1.30;;;12.80;32.60;;;12.86;61.39;101373.88;4915641;29;20540;-70
2022/09/03 02:08:00;;;;;;;1.80;1.10;;;12.80;33.20;;;12.80;61.58;101374.69;4917637;29;20464;-70
2022/09/03 02:10:38;;;;;;;4.50;1.27;;;12.70;33.80;;;12.86;61.36;101370.31;4911422;29;20878;-70
2022/09/03 02:13:11;;;;;;;2.53;1.23;;;12.70;34.40;;;12.80;61.62;101373.84;4910168;29;20449;-71
2022/09/03 02:15:45;;;;;;;2.27;1.20;;;12.70;34.80;;;12.78;61.54;101375.94;4918043;29;20426;-70
2022/09/03 02:18:20;;;;;;;2.10;1.67;;;12.70;35.50;;;12.79;61.63;101380.31;4910416;29;20444;-69
2022/09/03 02:20:51;;;;;;;2.50;1.80;;;12.70;36.20;;;12.74;61.78;101375.50;4914198;29;20486;-70
2022/09/03 02:23:21;;;;;;;3.43;1.67;;;12.70;36.70;;;12.64;62.10;101375.88;4916206;29;20416;-70
2022/09/03 02:25:59;;;;;;;2.10;1.57;;;12.60;37.70;;;12.53;62.41;101379.22;4912757;29;20415;-69
2022/09/03 02:28:30;;;;;;;5.57;1.50;;;12.60;39.00;;;12.63;62.26;101382.34;4911725;29;20520;-69
2022/09/03 02:30:59;;;;;;;2.43;2.23;;;12.50;39.70;;;12.64;62.13;101381.31;4915648;29;20487;-70
2022/09/03 02:33:32;;;;;;;2.07;1.40;;;12.60;39.60;;;12.59;62.37;101383.81;4915620;29;20503;-70
2022/09/03 02:36:03;;;;;;;2.80;1.70;;;12.50;40.40;;;12.54;62.57;101383.56;4913274;29;20424;-70
2022/09/03 02:38:32;;;;;;;2.00;1.27;;;12.50;41.20;;;12.55;62.60;101377.13;4918174;29;20453;-70
2022/09/03 02:41:01;;;;;;;4.00;1.83;;;12.50;41.90;;;12.51;62.62;101373.13;4916348;29;20450;-70
2022/09/03 02:43:39;;;;;;;3.93;1.67;;;12.40;42.50;;;12.49;62.62;101377.09;4926548;29;20411;-70
2022/09/03 02:46:16;;;;;;;3.27;1.30;;;12.40;43.40;;;12.48;62.84;101378.97;4914824;29;20514;-70
2022/09/03 02:48:46;;;;;;;1.60;1.13;;;12.40;44.40;;;12.49;62.83;101377.91;4919979;29;20444;-70
2022/09/03 02:51:15;;;;;;;2.97;1.10;;;12.40;44.70;;;12.43;62.94;101373.31;4914684;29;20444;-70
2022/09/03 02:53:45;;;;;;;1.80;1.40;;;12.40;45.70;;;12.39;63.14;101373.94;4912821;29;20444;-70
2022/09/03 02:56:14;;;;;;;3.77;1.37;;;12.30;46.40;;;12.33;63.33;101370.16;4915894;29;20441;-71
2022/09/03 02:58:42;;;;;;;3.00;1.63;;;12.30;47.70;;;12.31;63.28;101379.50;4917498;29;20444;-70
2022/09/03 03:01:11;;;;;;;1.80;1.60;;;12.30;48.40;;;12.39;62.94;101377.47;4914814;29;20957;-70
2022/09/03 03:03:53;;;;;;;3.43;1.57;;;12.30;48.30;;;12.39;62.87;101377.47;4917131;29;20464;-69
2022/09/03 03:06:22;;;;;;;8.00;1.30;;;12.30;47.90;;;12.27;63.38;101373.66;4918073;29;20497;-69
2022/09/03 03:08:54;;;;;;;2.63;1.70;;;12.20;48.80;;;12.30;63.27;101377.84;4918014;29;20959;-70
2022/09/03 03:11:25;;;;;;;2.03;1.83;;;12.20;49.40;;;12.29;63.33;101374.31;4921758;29;20440;-70
2022/09/03 03:13:53;;;;;;;2.50;1.40;;;12.20;49.70;;;12.25;63.35;101375.72;4917122;29;20960;-70
2022/09/03 03:16:22;;;;;;;2.10;1.30;;;12.20;49.90;;;12.23;63.31;101371.56;4921152;29;20415;-70
2022/09/03 03:18:52;;;;;;;2.87;1.97;;;12.20;50.50;;;12.24;63.45;101368.66;4916518;29;20472;-71
2022/09/03 03:21:21;;;;;;;2.37;1.57;;;12.20;50.70;;;12.21;63.41;101374.47;4917569;29;20455;-69
2022/09/03 03:23:50;;;;;;;3.97;1.90;;;12.20;51.00;;;12.25;63.18;101366.78;4915431;29;20452;-70
2022/09/03 03:26:21;;;;;;;2.90;1.17;;;12.20;50.90;;;12.18;63.48;101374.88;4924291;29;20412;-70
2022/09/03 03:28:57;;;;;;;2.43;1.40;;;12.10;51.00;;;12.18;63.35;101374.88;4918328;29;20450;-69
2022/09/03 03:31:27;;;;;;;1.77;1.57;;;12.10;51.20;;;12.16;63.26;101377.78;4923861;29;20467;-70
2022/09/03 03:33:59;;;;;;;3.20;1.93;;;12.10;51.00;;;12.12;63.46;101379.22;4912298;29;20981;-69
2022/09/03 03:36:31;;;;;;;2.00;1.50;;;12.00;52.00;;;12.05;63.72;101388.38;4917700;29;20500;-70
2022/09/03 03:39:02;;;;;;;2.17;1.40;;;12.00;53.30;;;12.06;63.79;101384.59;4925661;29;20430;-70
2022/09/03 03:41:34;;;;;;;5.53;1.67;;;12.00;53.40;;;11.97;64.10;101388.50;4922868;29;20903;-70
2022/09/03 03:44:06;;;;;;;2.67;1.90;;;11.90;55.00;;;11.90;64.48;101383.06;4915070;29;20503;-69
2022/09/03 03:46:38;;;;;;;5.23;1.90;;;11.80;57.10;;;11.87;64.58;101388.03;4911545;29;20425;-70
2022/09/03 03:49:09;;;;;;;4.33;2.20;;;11.80;58.50;;;11.88;64.80;101400.56;4924673;29;20423;-70
2022/09/03 03:51:39;;;;;;;2.03;1.80;;;11.80;60.70;;;11.98;64.61;101395.63;4922987;29;20527;-70
2022/09/03 03:54:08;;;;;;;1.63;1.47;;;11.80;63.10;;;11.88;64.84;101390.56;4925077;29;20483;-70
2022/09/03 03:56:37;;;;;;;2.27;1.83;;;11.80;62.70;;;11.90;64.73;101391.19;4926787;29;20460;-70
2022/09/03 03:59:05;;;;;;;2.80;1.93;;;11.80;64.00;;;11.99;64.64;101392.72;4922178;29;20419;-70
2022/09/03 04:01:34;;;;;;;3.20;1.90;;;11.90;64.80;;;11.99;64.50;101392.72;4927687;29;20467;-71
2022/09/03 04:04:04;;;;;;;2.07;1.40;;;11.90;63.70;;;12.07;64.17;101389.00;4919808;29;20433;-70
2022/09/03 04:06:34;;;;;;;5.77;2.30;;;11.90;62.00;;;12.10;63.81;101389.41;4921733;29;20751;-69
2022/09/03 04:09:03;;;;;;;4.57;2.73;;;12.00;61.10;;;12.14;63.98;101389.88;4920745;29;20514;-68
2022/09/03 04:11:32;;;;;;;2.87;1.87;;;12.00;60.70;;;12.15;63.95;101388.84;4909690;29;20877;-69
2022/09/03 04:14:03;;;;;;;2.90;1.60;;;12.00;60.40;;;12.07;64.20;101378.13;4916785;29;20536;-70
2022/09/03 04:16:32;;;;;;;2.50;2.00;;;12.00;59.80;;;12.14;64.08;101379.03;4915944;29;20449;-70
2022/09/03 04:19:01;;;;;;;8.13;2.13;;;12.00;61.00;;;12.23;63.66;101385.97;4925267;29;20469;-70
2022/09/03 04:21:31;;;;;;;2.57;2.30;;;12.10;59.90;;;12.31;63.43;101384.94;4921420;29;20452;-70
2022/09/03 04:24:04;;;;;;;3.50;2.93;;;12.20;58.70;;;12.29;63.71;101384.31;4919546;29;20444;-70
2022/09/03 04:26:34;;;;;;;2.30;1.60;;;12.10;58.90;;;12.36;63.31;101388.72;4920042;29;20496;-70
2022/09/03 04:29:06;;;;;;;3.03;2.50;;;12.20;58.40;;;12.30;63.79;101383.25;4919319;29;20515;-70
2022/09/03 04:31:37;;;;;;;2.53;2.10;;;12.20;59.00;;;12.41;63.47;101382.69;4922676;29;20524;-70
2022/09/03 04:34:08;;;;;;;4.23;2.73;;;12.20;58.70;;;12.39;63.50;101393.75;4923677;29;20444;-70
2022/09/03 04:36:37;;;;;;;3.53;2.43;;;12.30;58.90;;;12.31;64.10;101385.78;4920047;29;20449;-70
2022/09/03 04:39:07;;;;;;;2.50;2.03;;;12.20;60.10;;;12.31;64.02;101380.34;4927189;29;20516;-70
2022/09/03 04:41:36;;;;;;;4.70;2.33;;;12.20;61.00;;;12.29;64.47;101379.75;4923980;29;20863;-70
2022/09/03 04:44:05;;;;;;;3.13;2.43;;;12.20;62.90;;;12.39;64.19;101385.59;4918886;29;20428;-71
2022/09/03 04:46:34;;;;;;;2.20;2.00;;;12.20;63.90;;;12.46;63.99;101382.91;4921684;29;20455;-70
2022/09/03 04:49:03;;;;;;;2.63;2.00;;;12.30;63.20;;;12.50;64.03;101379.59;4924825;29;20933;-69
2022/09/03 04:51:32;;;;;;;3.30;2.50;;;12.40;63.80;;;12.62;64.00;101383.41;4923427;29;20439;-71
2022/09/03 04:54:03;;;;;;;2.77;2.27;;;12.40;64.30;;;12.58;64.23;101381.31;4918957;29;20448;-69
2022/09/03 04:56:35;;;;;;;7.43;2.67;;;12.40;65.10;;;12.78;63.86;101386.81;4916301;29;20498;-70
2022/09/03 04:59:07;;;;;;;3.00;2.00;;;12.50;65.10;;;13.45;62.05;101382.13;4916564;29;20794;-70
2022/09/03 05:01:39;;;;;;;3.70;2.20;;;12.70;62.50;;;14.29;59.21;101393.06;4919275;29;20989;-70
2022/09/03 05:04:09;;;;;;;2.00;1.80;;;13.30;54.90;;;15.00;57.12;101382.09;4918198;29;20557;-70
2022/09/03 05:06:38;;;;;;;2.93;2.17;;;13.70;47.80;;;15.63;55.34;101393.81;4915831;29;20483;-69
2022/09/03 05:09:07;;;;;;;2.93;1.93;;;14.10;42.20;;;15.82;54.83;101394.69;4919777;29;20427;-70
2022/09/03 05:11:37;;;;;;;2.30;1.90;;;14.60;36.40;;;14.99;56.72;101390.47;4915239;29;20484;-70
2022/09/03 05:14:10;;;;;;;3.00;2.23;;;14.60;33.90;;;14.26;59.28;101393.50;4925742;29;20451;-70
2022/09/03 05:16:39;;;;;;;4.60;2.93;;;14.20;36.70;;;13.93;60.37;101398.19;4916918;29;20441;-70
2022/09/03 05:19:09;;;;;;;2.30;1.80;;;13.90;39.80;;;13.54;61.73;101396.34;4917581;29;20462;-71
2022/09/03 05:21:38;;;;;;;5.50;2.70;;;13.60;43.80;;;13.39;62.42;101396.56;4918102;29;20990;-70
2022/09/03 05:24:07;;;;;;;2.20;1.93;;;13.40;49.10;;;13.32;62.92;101401.13;4918731;29;20420;-70
2022/09/03 05:26:40;;;;;;;3.50;1.87;;;13.20;53.60;;;13.20;63.50;101402.81;4916908;29;20435;-71
2022/09/03 05:29:09;;;;;;;2.40;2.00;;;13.20;56.60;;;13.12;64.09;101392.13;4915848;29;20795;-70
2022/09/03 05:31:39;;;;;;;2.80;2.60;;;13.00;60.10;;;13.08;64.20;101398.97;4915154;29;20787;-70
2022/09/03 05:34:08;;;;;;;3.30;2.13;;;13.00;63.90;;;13.09;64.83;101403.38;4913273;29;20416;-71
2022/09/03 05:36:47;;;;;;;5.67;2.33;;;13.00;66.80;;;13.14;64.82;101390.03;4917809;29;20445;-71
2022/09/03 05:39:16;;;;;;;5.10;2.83;;;13.00;70.20;;;13.14;64.76;101395.47;4917649;29;20880;-70
2022/09/03 05:41:51;;;;;;;3.90;2.40;;;13.00;71.70;;;13.19;64.81;101398.41;4920606;29;20531;-71
2022/09/03 05:44:22;;;;;;;5.30;2.40;;;13.00;73.90;;;13.30;64.56;101397.81;4916290;29;20935;-71
2022/09/03 05:46:52;;;;;;;9.50;2.30;;;13.00;73.90;;;13.32;64.63;101395.69;4918035;29;20839;-70
2022/09/03 05:49:21;;;;;;;2.90;2.20;;;13.10;73.80;;;13.34;64.76;101398.22;4911765;29;20485;-71
2022/09/03 05:51:49;;;;;;;3.57;2.10;;;13.10;74.10;;;13.36;64.72;101396.94;4919957;29;20484;-70
2022/09/03 05:54:18;;;;;;;3.07;2.00;;;13.20;75.30;;;13.39;64.82;101393.00;4918780;29;20446;-71
2022/09/03 05:56:48;;;;;;;3.10;2.27;;;13.20;75.10;;;13.39;64.60;101402.00;4917928;29;20442;-70
2022/09/03 05:59:18;;;;;;;3.80;2.40;;;13.20;75.00;;;13.47;64.77;101399.06;4913649;29;20451;-71
2022/09/03 06:01:48;;;;;;;3.30;2.40;;;13.20;76.10;;;13.49;64.56;101399.69;4914171;29;20568;-70
2022/09/03 06:04:20;;;;;;;2.60;1.73;;;13.30;74.80;;;13.62;64.31;101395.28;4916676;29;20423;-70
2022/09/03 06:06:50;;;;;;;3.60;2.80;;;13.40;74.40;;;13.67;64.47;101403.66;4913960;29;20460;-72
2022/09/03 06:09:22;;;;;;;2.90;1.90;;;13.40;75.20;;;13.61;64.67;101399.03;4926931;29;20456;-70
2022/09/03 06:11:53;;;;;;;3.33;2.67;;;13.40;73.90;;;13.83;64.33;101403.22;4913342;29;20530;-70
2022/09/03 06:14:26;;;;;;;2.87;2.13;;;13.50;75.10;;;13.96;63.49;101405.09;4917464;29;20477;-71
2022/09/03 06:16:55;;;;;;;4.23;2.63;;;13.70;69.90;;;14.14;63.22;101403.38;4914085;29;20412;-70
2022/09/03 06:19:24;;;;;;;2.87;2.33;;;13.80;67.90;;;14.24;62.71;101403.75;4912415;29;20447;-70
2022/09/03 06:21:54;;;;;;;4.60;1.77;;;14.00;64.00;;;14.46;62.31;101403.53;4912881;29;20576;-70
2022/09/03 06:24:23;;;;;;;4.60;1.97;;;14.10;61.10;;;14.72;60.90;101397.94;4915993;29;20527;-71
2022/09/03 06:26:57;;;;;;;2.93;2.13;;;14.40;55.40;;;14.72;60.92;101406.13;4915282;29;20456;-71
2022/09/03 06:29:26;;;;;;;4.50;2.43;;;14.50;53.10;;;14.62;61.31;101403.06;4916714;29;20422;-71
2022/09/03 06:31:55;;;;;;;5.73;1.93;;;14.40;52.80;;;14.63;61.64;101399.25;4912557;29;20440;-71
2022/09/03 06:34:26;;;;;;;2.33;1.90;;;14.40;54.50;;;14.71;61.34;101407.19;4921135;29;20418;-70
2022/09/03 06:36:54;;;;;;;1.83;1.50;;;14.40;53.70;;;14.73;60.72;101400.47;4918612;29;20974;-70
2022/09/03 06:39:24;;;;;;;2.30;1.87;;;14.50;51.20;;;14.99;60.19;101399.50;4918692;29;20527;-70
2022/09/03 06:41:53;;;;;;;3.40;2.43;;;14.70;50.30;;;15.15;59.61;101400.88;4917345;29;20447;-70
2022/09/03 06:44:33;;;;;;;4.50;2.70;;;14.80;47.70;;;15.36;59.26;101403.22;4934206;29;20460;-70
2022/09/03 06:47:02;;;;;;;3.97;2.53;;;15.00;45.80;;;15.46;58.48;101409.00;4933343;29;20917;-70
2022/09/03 06:49:30;;;;;;;3.63;2.20;;;15.20;42.70;;;15.37;58.43;101407.63;4924511;29;20445;-71
2022/09/03 06:51:59;;;;;;;3.00;1.70;;;15.20;40.30;;;15.07;59.04;101412.00;4916649;29;20512;-68
2022/09/03 06:54:28;;;;;;;4.20;2.40;;;15.10;39.70;;;15.03;59.54;101417.06;4919497;29;20416;-69
2022/09/03 06:56:57;;;;;;;2.17;1.87;;;14.90;41.20;;;14.94;59.71;101412.94;4918622;29;20468;-70
2022/09/03 06:59:27;;;;;;;5.23;2.53;;;14.90;41.90;;;14.87;59.81;101412.13;4918885;29;20503;-71
2022/09/03 07:01:59;;;;;;;3.67;2.03;;;14.80;41.90;;;15.05;59.43;101417.69;4917872;29;20491;-70
2022/09/03 07:04:28;;;;;;;3.73;2.60;;;14.80;42.30;;;15.22;59.12;101416.09;4918521;29;20428;-69
2022/09/03 07:06:57;;;;;;;2.43;1.90;;;14.90;42.50;;;15.31;58.80;101422.13;4917852;29;20832;-69
2022/09/03 07:09:25;;;;;;;2.60;2.00;;;15.00;40.50;;;15.45;58.15;101414.69;4917547;29;20452;-71
2022/09/03 07:11:54;;;;;;;3.57;2.47;;;15.10;39.40;;;15.72;57.79;101410.72;4917752;29;20560;-70
2022/09/03 07:14:23;;;;;;;3.30;2.13;;;15.30;38.90;;;15.78;57.59;101415.25;4918346;29;20424;-70
2022/09/03 07:16:56;;;;;;;3.90;2.20;;;15.50;37.10;;;15.95;57.04;101408.19;4916845;29;20423;-70
2022/09/03 07:19:24;;;;;;;3.37;2.47;;;15.70;35.30;;;16.34;56.03;101404.19;4918776;29;20695;-70
2022/09/03 07:21:53;;;;;;;2.07;1.70;;;15.90;33.80;;;16.40;55.83;101402.47;4949367;23;20510;-71
2022/09/03 07:24:22;;;;;;;5.10;2.83;;;16.10;31.10;;;16.65;55.11;101411.44;4949895;28;20446;-72
2022/09/03 07:26:51;;;;;;;3.70;2.40;;;16.20;30.00;;;16.63;55.06;101409.97;4945927;29;20481;-71
2022/09/03 07:29:20;;;;;;;2.80;2.17;;;16.30;28.80;;;16.77;54.69;101416.94;4947032;29;20388;-72
2022/09/03 07:31:51;;;;;;;2.77;1.97;;;16.40;27.90;;;16.68;54.87;101418.31;4957779;29;20415;-71
2022/09/03 07:34:25;;;;;;;4.70;3.30;;;16.50;27.10;;;17.19;53.71;101412.34;4958207;29;20455;-73
2022/09/03 07:36:55;;;;;;;2.53;2.07;;;16.80;26.40;;;17.32;53.37;101418.47;4965145;29;20434;-72
2022/09/03 07:39:23;;;;;;;3.57;2.30;;;17.00;25.30;;;17.66;52.73;101414.16;4967518;28;20486;-71
2022/09/03 07:41:53;;;;;;;2.43;2.00;;;17.20;24.30;;;17.74;52.25;101416.53;4951714;29;20643;-71
2022/09/03 07:44:23;;;;;;;2.30;1.63;;;17.30;22.70;;;18.27;50.94;101414.72;4944181;29;20474;-71
2022/09/03 07:46:52;;;;;;;3.57;2.17;;;17.60;21.80;;;17.97;51.14;101417.59;4943833;29;20469;-71
2022/09/03 07:49:22;;;;;;;3.10;2.07;;;17.70;20.00;;;17.49;51.98;101420.50;4946502;29;20629;-72
2022/09/03 07:51:53;;;;;;;3.00;1.80;;;17.50;19.60;;;17.32;52.44;101418.47;4931527;29;20503;-71
2022/09/03 07:54:24;;;;;;;2.13;1.70;;;17.20;19.80;;;17.46;52.59;101408.16;4938237;29;20468;-71
2022/09/03 07:56:54;;;;;;;3.77;2.33;;;17.20;20.60;;;17.63;52.39;101409.13;4939759;29;20502;-72
2022/09/03 07:59:24;;;;;;;3.73;2.30;;;17.30;20.70;;;17.77;52.40;101420.69;4940676;28;20475;-72
2022/09/03 08:01:53;;;;;;;4.53;2.23;;;17.50;20.60;;;18.00;51.34;101419.88;4946473;29;20538;-72
2022/09/03 08:04:23;;;;;;;3.37;2.77;;;17.60;19.50;;;17.80;51.29;101422.97;4942968;29;20563;-72
2022/09/03 08:06:55;;;;;;;5.20;1.90;;;17.60;18.10;;;17.47;52.29;101418.03;4934735;29;20956;-72
2022/09/03 08:09:24;;;;;;;4.40;2.60;;;17.40;18.70;;;17.51;52.39;101424.69;4943038;29;20433;-71
2022/09/03 08:11:54;;;;;;;3.70;1.97;;;17.30;19.10;;;17.48;51.92;101411.47;4936169;29;20422;-72
2022/09/03 08:14:22;;;;;;;3.60;2.50;;;17.30;18.40;;;17.43;52.42;101418.75;4941504;29;20464;-71
2022/09/03 08:16:51;;;;;;;2.87;2.57;;;17.20;18.90;;;17.73;51.97;101417.59;4939414;29;20479;-72
2022/09/03 08:19:21;;;;;;;2.30;2.10;;;17.30;19.30;;;17.90;51.88;101419.66;4939003;29;20486;-71
2022/09/03 08:21:51;;;;;;;5.53;1.97;;;17.50;19.30;;;17.88;51.85;101425.34;4941074;29;20959;-72
2022/09/03 08:24:23;;;;;;;2.90;2.00;;;17.60;19.00;;;18.06;50.70;101418.91;4938695;29;20472;-72
2022/09/03 08:26:52;;;;;;;5.57;1.93;;;17.70;17.90;;;18.09;50.70;101427.50;4935304;29;20411;-71
2022/09/03 08:29:22;;;;;;;9.73;1.87;;;17.70;17.40;;;18.21;50.31;101417.38;4936103;29;20811;-73
2022/09/03 08:31:51;;;;;;;2.83;2.03;;;17.80;17.20;;;18.33;49.67;101420.09;4941489;29;20473;-72
2022/09/03 08:34:21;;;;;;;5.90;2.10;;;18.00;16.10;;;18.48;49.97;101423.16;4932226;29;20896;-72
2022/09/03 08:36:53;;;;;;;2.57;1.97;;;18.10;16.20;;;18.40;49.51;101420.78;4938986;29;20411;-73
2022/09/03 08:39:21;;;;;;;2.33;1.90;;;18.10;15.00;;;18.61;48.94;101422.09;4936873;29;20426;-72
2022/09/03 08:42:19;;;;;;;2.70;1.93;;;18.30;14.60;;;18.76;49.40;101413.34;4929707;28;20441;-72
2022/09/03 08:44:54;;;;;;;2.83;1.90;;;18.40;15.10;;;18.60;49.42;101410.28;4930252;29;20476;-71
2022/09/03 08:47:30;;;;;;;2.80;2.10;;;18.40;14.50;;;18.55;49.39;101407.44;4939324;29;20987;-72
2022/09/03 08:50:11;;;;;;;2.37;1.73;;;18.40;14.40;;;18.63;49.43;101395.28;4936691;29;20445;-72
2022/09/03 08:52:48;;;;;;;3.70;2.70;;;18.40;14.20;;;18.42;50.16;101402.22;4930224;29;20615;-72
2022/09/03 08:55:25;;;;;;;3.63;1.90;;;18.30;14.30;;;18.31;49.95;101403.06;4938662;29;20446;-72
2022/09/03 08:58:04;;;;;;;5.73;2.40;;;18.20;14.30;;;18.20;50.20;101412.16;4941103;28;20485;-70
2022/09/03 09:00:48;;;;;;;3.93;1.87;;;18.00;14.40;;;18.23;50.12;101401.53;4935448;29;20996;-71
2022/09/03 09:03:53;;;;;;;2.43;1.90;;;18.10;14.50;;;18.38;50.17;101395.53;4932932;29;20761;-73
2022/09/03 09:06:31;;;;;;;2.93;2.23;;;18.10;14.60;;;18.52;49.76;101396.94;4935872;29;20436;-71
2022/09/03 09:09:13;;;;;;;3.40;1.70;;;18.20;14.70;;;18.50;50.32;101393.59;4938820;29;20762;-70
2022/09/03 09:12:01;;;;;;;2.47;1.63;;;18.20;14.50;;;18.74;50.27;101394.38;4939230;29;21440;-72
2022/09/03 09:14:40;;;;;;;4.20;2.30;;;18.40;15.00;;;18.85;50.02;101390.78;4940815;29;20467;-71
2022/09/03 09:17:34;;;;;;;3.03;2.10;;;18.50;14.80;;;19.03;47.87;101393.31;4938366;29;20456;-71
2022/09/03 09:20:13;;;;;;;2.70;2.07;;;18.80;13.90;;;19.27;46.71;101388.53;4929420;29;20511;-73
2022/09/03 09:22:47;;;;;;;3.17;1.90;;;18.90;10.70;;;19.31;47.04;101389.72;4930417;29;20866;-70
2022/09/03 09:25:23;;;;;;;3.73;1.90;;;19.10;10.90;;;19.42;47.30;101391.53;4938521;29;20948;-71
2022/09/03 09:27:59;;;;;;;5.03;2.10;;;19.10;10.60;;;19.58;46.99;101383.59;4939396;29;20436;-71
2022/09/03 09:30:30;;;;;;;4.20;2.20;;;19.30;10.50;;;20.01;45.67;101383.72;4928874;29;20481;-71
2022/09/03 09:33:00;;;;;;;3.20;2.07;;;19.50;8.80;;;19.80;45.33;101379.81;4929177;29;20463;-72
2022/09/03 09:35:29;;;;;;;2.10;1.87;;;19.50;7.40;;;19.91;45.17;101372.56;4934617;29;20961;-71
2022/09/03 09:37:59;;;;;;;3.27;2.07;;;19.60;7.30;;;19.84;45.34;101372.78;4927996;29;20916;-71
2022/09/03 09:40:37;;;;;;;3.87;2.30;;;19.60;7.50;;;19.77;45.56;101365.78;4925248;29;20439;-70
2022/09/03 09:43:16;;;;;;;3.10;1.60;;;19.60;6.60;;;20.07;44.57;101363.47;4924375;29;20922;-71
2022/09/03 09:45:47;;;;;;;4.30;2.30;;;19.70;6.50;;;20.27;43.83;101358.25;4942342;28;20435;-70
2022/09/03 09:48:30;;;;;;;2.80;1.87;;;19.90;5.60;;;20.22;43.97;101363.69;4926202;29;20423;-71
2022/09/03 09:51:09;;;;;;;2.80;2.10;;;19.90;5.20;;;20.23;43.89;101354.38;4926964;29;20792;-70
2022/09/03 09:53:39;;;;;;;4.63;1.97;;;20.00;4.70;;;20.48;43.82;101361.28;4927999;29;20499;-72
2022/09/03 09:56:20;;;;;;;2.17;1.60;;;20.10;4.80;;;20.75;42.21;101359.41;4937878;29;20513;-72
2022/09/03 09:58:51;;;;;;;2.63;1.43;;;20.40;3.10;;;20.75;41.89;101363.00;4936632;29;20543;-72
2022/09/03 10:01:24;;;;;;;2.80;1.37;;;20.40;2.00;;;20.60;41.82;101362.81;4935744;29;20472;-71
2022/09/03 10:03:57;;;;;;;4.07;1.83;;;20.30;1.60;;;20.55;41.69;101368.25;4935635;29;20471;-71
2022/09/03 10:09:19;;;;;;;4.27;2.00;;;20.40;1.00;;;20.65;40.97;101362.03;4939172;29;20538;-72
2022/09/03 10:11:58;;;;;;;2.03;1.60;;;20.40;1.00;;;20.65;41.10;101368.38;4939454;29;20411;-71
2022/09/03 10:14:33;;;;;;;2.90;1.87;;;20.40;1.00;;;20.79;39.75;101353.13;4939156;29;20464;-71
2022/09/03 10:17:15;;;;;;;2.27;1.40;;;20.40;1.00;;;21.00;39.46;101348.66;4937448;29;20507;-72
2022/09/03 10:22:55;;;;;;;2.07;1.27;;;20.70;1.00;;;21.52;38.22;101335.09;4935036;29;20512;-72
2022/09/03 10:25:34;;;;;;;2.37;1.53;;;21.00;1.00;;;21.51;37.61;101330.69;4938798;29;20949;-71
2022/09/03 10:28:08;;;;;;;7.63;1.90;;;21.20;1.00;;;21.22;36.86;101343.94;4937160;29;20452;-72
2022/09/03 10:31:14;;;;;;;4.13;1.80;;;21.10;1.00;;;21.33;37.56;101333.03;4943079;29;20447;-71
2022/09/03 10:33:54;;;;;;;3.10;1.90;;;21.00;1.00;;;21.40;36.75;101339.13;4948060;28;20525;-70
2022/09/03 10:36:34;;;;;;;4.10;1.30;;;21.10;1.00;;;21.24;37.39;101343.69;4945016;29;20452;-71
2022/09/03 10:39:14;;;;;;;2.77;1.47;;;21.00;1.00;;;21.14;37.60;101330.69;4940443;29;20444;-71
2022/09/03 10:42:15;;;;;;;2.47;1.53;;;20.90;1.00;;;21.36;37.05;101332.50;4936020;29;20546;-72
2022/09/03 10:45:08;;;;;;;3.43;1.53;;;21.00;1.00;;;21.41;37.02;101332.53;4933633;29;20459;-70
2022/09/03 10:48:14;;;;;;;2.23;1.47;;;21.10;1.00;;;21.62;36.53;101320.59;4938383;29;20542;-71
2022/09/03 10:50:51;;;;;;;5.40;1.60;;;21.20;1.00;;;21.33;36.46;101335.78;4936319;29;20508;-71